Time;durP1;ratioP1;P1;durP2;ratioP2;P2;SDS_P1;SDS_P2;PMS_P1;PMS_P2;Temp;Humidity;BMP_temperature;BMP_pressure;BME280_temperature;BME280_humidity;BME280_pressure;Samples;Min_cycle;Max_cycle;Signal;HPM_P1;HPM_P2
2021/08/04 00:00:09;;;;;;;4.28;3.13;;;17.90;99.90;;;;;;5122189;27;20038;-78
2021/08/04 00:02:35;;;;;;;4.72;3.47;;;17.90;99.90;;;;;;5122601;27;20114;-77
2021/08/04 00:05:01;;;;;;;4.25;3.33;;;18.00;99.90;;;;;;5127079;27;20047;-77
2021/08/04 00:07:26;;;;;;;6.93;3.97;;;17.90;99.90;;;;;;5118871;27;20080;-76
2021/08/04 00:09:52;;;;;;;5.45;3.75;;;18.00;99.90;;;;;;5125825;27;20051;-77
2021/08/04 00:12:17;;;;;;;4.22;3.72;;;18.00;99.90;;;;;;5123668;27;20058;-77
2021/08/04 00:14:43;;;;;;;5.15;3.50;;;17.90;99.90;;;;;;5126861;27;20027;-77
2021/08/04 00:17:09;;;;;;;5.05;3.33;;;18.00;99.90;;;;;;5115455;28;20027;-77
2021/08/04 00:19:34;;;;;;;4.53;3.33;;;17.90;99.90;;;;;;5118285;27;20070;-77
2021/08/04 00:22:00;;;;;;;4.50;3.65;;;17.80;99.90;;;;;;5126451;27;20098;-77
2021/08/04 00:24:25;;;;;;;4.80;3.70;;;17.70;99.90;;;;;;5121757;28;20190;-77
2021/08/04 00:26:51;;;;;;;4.35;3.75;;;17.70;99.90;;;;;;5130750;28;20497;-78
2021/08/04 00:29:17;;;;;;;5.53;3.90;;;17.60;99.90;;;;;;5119167;28;20102;-77
2021/08/04 00:31:42;;;;;;;4.18;3.78;;;17.70;99.90;;;;;;5112349;28;20026;-77
2021/08/04 00:34:08;;;;;;;4.35;3.85;;;;;;;;;;5111865;28;20131;-77
2021/08/04 00:36:34;;;;;;;7.13;3.78;;;17.60;99.90;;;;;;5117055;28;20029;-77
2021/08/04 00:39:05;;;;;;;3.90;3.28;;;17.60;99.90;;;;;;5120562;28;20118;-79
2021/08/04 00:41:41;;;;;;;5.70;3.15;;;17.60;99.90;;;;;;5111572;28;20030;-77
2021/08/04 00:44:07;;;;;;;3.85;3.30;;;17.70;99.90;;;;;;5120759;28;20491;-77
2021/08/04 00:46:42;;;;;;;4.93;4.18;;;17.60;99.90;;;;;;5115384;28;20034;-78
2021/08/04 00:49:10;;;;;;;6.30;3.80;;;17.60;99.90;;;;;;5118478;28;20038;-77
2021/08/04 00:51:36;;;;;;;4.15;3.63;;;17.60;99.90;;;;;;5125998;28;20028;-77
2021/08/04 00:54:04;;;;;;;5.20;3.60;;;17.50;99.90;;;;;;5129378;28;20019;-77
2021/08/04 00:56:29;;;;;;;5.72;4.40;;;17.60;99.90;;;;;;5123342;28;20039;-77
2021/08/04 00:58:55;;;;;;;5.28;4.00;;;17.60;99.90;;;;;;5121614;28;20031;-78
2021/08/04 01:01:25;;;;;;;4.30;3.55;;;17.60;99.90;;;;;;5117513;28;20070;-77
2021/08/04 01:03:55;;;;;;;4.47;3.20;;;17.60;99.90;;;;;;5112175;28;20498;-78
2021/08/04 01:06:38;;;;;;;4.70;3.28;;;17.60;99.90;;;;;;5118952;27;20032;-78
2021/08/04 01:09:06;;;;;;;4.40;2.97;;;17.60;99.90;;;;;;5117636;27;20024;-78
2021/08/04 01:11:38;;;;;;;3.88;3.20;;;17.60;99.90;;;;;;5125676;27;20033;-78
2021/08/04 01:14:13;;;;;;;4.35;3.67;;;17.60;99.90;;;;;;5119065;27;20081;-78
2021/08/04 01:16:41;;;;;;;4.15;3.30;;;17.60;99.90;;;;;;5121258;27;20028;-78
2021/08/04 01:19:24;;;;;;;3.75;3.10;;;17.60;99.90;;;;;;5121981;27;20030;-78
2021/08/04 01:22:07;;;;;;;4.93;3.75;;;17.60;99.90;;;;;;5122703;27;20089;-78
2021/08/04 01:24:40;;;;;;;4.22;3.20;;;17.60;99.90;;;;;;5121526;27;20020;-78
2021/08/04 01:27:11;;;;;;;4.03;3.40;;;17.60;99.90;;;;;;5120258;27;20034;-77
2021/08/04 01:29:37;;;;;;;5.95;3.22;;;17.50;99.90;;;;;;5114082;27;20114;-78
2021/08/04 01:32:04;;;;;;;3.38;3.05;;;17.60;99.90;;;;;;5115318;27;20115;-77
2021/08/04 01:34:35;;;;;;;3.88;2.88;;;17.50;99.90;;;;;;5114693;27;20399;-77
2021/08/04 01:37:01;;;;;;;3.30;2.50;;;17.50;99.90;;;;;;5109990;27;20032;-77
2021/08/04 01:39:27;;;;;;;4.60;3.00;;;17.40;99.90;;;;;;5114531;27;20023;-77
2021/08/04 01:41:55;;;;;;;3.10;2.80;;;17.50;99.90;;;;;;5128059;27;20384;-77
2021/08/04 01:44:21;;;;;;;3.78;2.80;;;17.40;99.90;;;;;;5115213;27;20023;-77
2021/08/04 01:46:47;;;;;;;4.13;3.05;;;17.40;99.90;;;;;;5114368;27;20403;-77
2021/08/04 01:49:13;;;;;;;3.55;2.90;;;17.40;99.90;;;;;;5109956;27;20032;-77
2021/08/04 01:51:39;;;;;;;4.45;3.20;;;17.40;99.90;;;;;;5112644;27;20037;-77
2021/08/04 01:54:05;;;;;;;3.13;2.83;;;17.30;99.90;;;;;;5117192;27;20039;-77
2021/08/04 01:56:30;;;;;;;2.80;2.50;;;17.30;99.90;;;;;;5122800;27;20033;-77
2021/08/04 01:58:57;;;;;;;3.03;2.47;;;17.30;99.90;;;;;;5124647;27;20038;-77
2021/08/04 02:01:25;;;;;;;2.85;2.38;;;17.30;99.90;;;;;;5134619;27;20106;-77
2021/08/04 02:03:52;;;;;;;4.47;2.75;;;17.30;99.90;;;;;;5126612;27;20027;-77
2021/08/04 02:06:29;;;;;;;2.88;2.63;;;17.20;99.90;;;;;;5125828;27;20070;-77
2021/08/04 02:09:20;;;;;;;2.85;2.58;;;17.20;99.90;;;;;;5108254;27;20039;-78
2021/08/04 02:11:54;;;;;;;3.33;2.80;;;17.10;99.90;;;;;;5120269;27;20066;-77
2021/08/04 02:14:52;;;;;;;4.22;3.53;;;17.10;99.90;;;;;;5119616;27;20024;-77
2021/08/04 02:17:39;;;;;;;3.80;3.08;;;17.20;99.90;;;;;;5119452;27;20292;-78
2021/08/04 02:20:13;;;;;;;5.07;3.08;;;17.10;99.90;;;;;;5123980;27;20028;-77
2021/08/04 02:22:47;;;;;;;4.72;3.20;;;17.20;99.90;;;;;;5124450;27;20048;-79
2021/08/04 02:25:17;;;;;;;3.45;3.08;;;17.20;99.90;;;;;;5124767;27;20302;-79
2021/08/04 02:27:44;;;;;;;3.70;3.17;;;17.20;99.90;;;;;;5125098;27;20591;-78
2021/08/04 02:30:12;;;;;;;3.83;3.47;;;17.20;99.90;;;;;;5115294;27;20434;-77
2021/08/04 02:32:39;;;;;;;4.97;4.05;;;17.20;99.90;;;;;;5122149;27;20494;-78
2021/08/04 02:35:05;;;;;;;5.28;3.97;;;17.10;99.90;;;;;;5121632;27;20036;-78
2021/08/04 02:37:32;;;;;;;4.20;3.65;;;17.10;99.90;;;;;;5121101;27;20475;-78
2021/08/04 02:39:59;;;;;;;4.93;3.72;;;17.10;99.90;;;;;;5124772;27;20016;-78
2021/08/04 02:42:25;;;;;;;5.90;3.92;;;17.10;99.90;;;;;;5115433;27;20023;-78
2021/08/04 02:44:51;;;;;;;4.28;3.88;;;17.10;99.90;;;;;;5108769;28;20059;-77
2021/08/04 02:47:18;;;;;;;6.47;4.18;;;17.00;99.90;;;;;;5126236;27;20084;-79
2021/08/04 02:49:44;;;;;;;4.55;4.00;;;17.10;99.90;;;;;;5129877;27;20034;-79
2021/08/04 02:52:10;;;;;;;4.70;4.05;;;17.00;99.90;;;;;;5123186;27;20023;-78
2021/08/04 02:54:37;;;;;;;5.30;4.05;;;;;;;;;;5115379;27;20032;-78
2021/08/04 02:57:03;;;;;;;6.60;4.45;;;17.10;99.90;;;;;;5118979;27;20024;-78
2021/08/04 02:59:29;;;;;;;7.13;4.50;;;17.00;99.90;;;;;;5107693;27;20103;-77
2021/08/04 03:01:54;;;;;;;5.13;4.63;;;17.00;99.90;;;;;;5115766;27;20471;-78
2021/08/04 03:04:20;;;;;;;4.90;4.40;;;17.00;99.90;;;;;;5114385;27;20387;-78
2021/08/04 03:06:45;;;;;;;5.30;4.80;;;17.00;99.90;;;;;;5112379;27;20031;-77
2021/08/04 03:09:11;;;;;;;4.88;4.20;;;16.90;99.90;;;;;;5117273;27;20094;-78
2021/08/04 03:11:37;;;;;;;7.20;4.43;;;16.90;99.90;;;;;;5117327;27;20024;-79
2021/08/04 03:14:03;;;;;;;6.07;4.18;;;16.80;99.90;;;;;;5119799;27;20079;-77
2021/08/04 03:16:29;;;;;;;5.70;5.15;;;16.80;99.90;;;;;;5109872;27;20405;-77
2021/08/04 03:18:54;;;;;;;5.07;4.50;;;16.90;99.90;;;;;;5110627;27;20047;-78
2021/08/04 03:21:20;;;;;;;5.70;5.10;;;16.80;99.90;;;;;;5110391;27;20375;-78
2021/08/04 03:23:45;;;;;;;6.90;5.45;;;16.80;99.90;;;;;;5105693;27;20076;-78
2021/08/04 03:26:11;;;;;;;6.35;4.70;;;16.80;99.90;;;;;;5117907;27;20043;-78
2021/08/04 03:28:36;;;;;;;5.90;5.10;;;16.80;99.90;;;;;;5106430;27;20062;-77
2021/08/04 03:31:02;;;;;;;8.27;5.18;;;16.80;99.90;;;;;;5114765;27;20036;-78
2021/08/04 03:33:27;;;;;;;6.15;4.90;;;16.80;99.90;;;;;;5120535;27;20047;-78
2021/08/04 03:35:53;;;;;;;5.93;5.25;;;16.80;99.90;;;;;;5117234;27;20031;-77
2021/08/04 03:38:18;;;;;;;5.95;4.97;;;16.70;99.90;;;;;;5123588;27;20019;-79
2021/08/04 03:40:44;;;;;;;7.38;4.95;;;16.70;99.90;;;;;;5125644;27;20042;-78
2021/08/04 03:43:09;;;;;;;7.57;5.03;;;16.50;99.90;;;;;;5120911;27;20046;-78
2021/08/04 03:45:35;;;;;;;4.95;4.45;;;16.50;99.90;;;;;;5120965;27;20024;-79
2021/08/04 03:48:01;;;;;;;5.78;5.25;;;16.40;99.90;;;;;;5118033;27;20023;-77
2021/08/04 03:50:27;;;;;;;7.88;5.30;;;16.40;99.90;;;;;;5118970;27;20696;-76
2021/08/04 03:52:52;;;;;;;6.00;5.38;;;16.50;99.90;;;;;;5121033;27;20486;-79
2021/08/04 03:55:18;;;;;;;5.28;4.78;;;16.50;99.90;;;;;;5124929;27;20033;-79
2021/08/04 03:57:43;;;;;;;8.05;5.13;;;16.60;99.90;;;;;;5120043;27;20557;-79
2021/08/04 04:00:11;;;;;;;7.03;5.20;;;16.60;99.90;;;;;;5134641;27;20015;-79
2021/08/04 04:02:36;;;;;;;5.40;4.78;;;16.60;99.90;;;;;;5127908;27;20015;-79
2021/08/04 04:05:02;;;;;;;5.18;4.68;;;16.70;99.90;;;;;;5114602;27;20357;-78
2021/08/04 04:07:27;;;;;;;7.22;5.30;;;16.70;99.90;;;;;;5127803;27;20026;-78
2021/08/04 04:09:53;;;;;;;5.82;5.03;;;16.70;99.90;;;;;;5127019;27;20042;-79
2021/08/04 04:12:19;;;;;;;6.50;5.13;;;16.70;99.90;;;;;;5119421;27;20036;-83
2021/08/04 04:14:44;;;;;;;5.93;5.43;;;16.70;99.90;;;;;;5118988;28;20032;-83
2021/08/04 04:17:11;;;;;;;7.53;5.65;;;;;;;;;;5658254;22;20053;-82
2021/08/04 04:19:37;;;;;;;5.63;5.13;;;;;;;;;;5050080;28;20052;-74
2021/08/04 04:22:02;;;;;;;6.13;5.53;;;16.50;99.90;;;;;;5043032;28;20031;-74
2021/08/04 04:24:28;;;;;;;5.93;5.32;;;;;;;;;;5027129;28;20034;-73
2021/08/04 04:26:54;;;;;;;9.70;6.05;;;16.50;99.90;;;;;;5013007;28;20406;-73
2021/08/04 04:29:19;;;;;;;8.02;5.78;;;16.50;99.90;;;;;;5012169;28;20025;-74
2021/08/04 04:31:45;;;;;;;6.47;5.55;;;16.60;99.90;;;;;;5013259;28;20037;-73
2021/08/04 04:34:10;;;;;;;6.63;5.15;;;16.60;99.90;;;;;;5011408;28;20026;-73
2021/08/04 04:36:36;;;;;;;6.03;5.43;;;16.60;99.90;;;;;;5009417;28;20034;-73
2021/08/04 04:39:02;;;;;;;8.05;5.90;;;16.60;99.90;;;;;;5009987;28;20018;-74
2021/08/04 04:41:27;;;;;;;6.30;5.55;;;16.70;99.90;;;;;;5013914;28;20235;-73
2021/08/04 04:43:53;;;;;;;8.10;5.82;;;16.60;99.90;;;;;;5012709;28;20505;-74
2021/08/04 04:46:19;;;;;;;9.30;5.93;;;16.60;99.90;;;;;;5012257;28;20401;-73
2021/08/04 04:48:44;;;;;;;6.00;5.40;;;16.60;99.90;;;;;;5012374;28;20054;-74
2021/08/04 04:51:10;;;;;;;6.88;5.43;;;16.70;99.90;;;;;;5012415;28;20072;-73
2021/08/04 04:53:35;;;;;;;6.70;5.38;;;16.70;99.90;;;;;;5012787;28;20033;-73
2021/08/04 04:56:01;;;;;;;6.82;6.18;;;16.60;99.90;;;;;;5012878;28;20026;-74
2021/08/04 04:58:26;;;;;;;9.48;7.43;;;16.60;99.90;;;;;;5011735;28;20036;-74
2021/08/04 05:00:52;;;;;;;6.55;5.63;;;16.70;99.90;;;;;;5010950;28;20382;-74
2021/08/04 05:03:21;;;;;;;7.78;6.47;;;16.70;99.90;;;;;;5010973;28;20109;-73
2021/08/04 05:05:46;;;;;;;9.35;6.43;;;17.10;99.90;;;;;;5012924;28;20034;-74
2021/08/04 05:08:12;;;;;;;6.55;5.85;;;16.70;99.90;;;;;;5010934;28;20049;-73
2021/08/04 05:10:38;;;;;;;7.07;6.38;;;16.70;99.90;;;;;;5012570;28;20516;-74
2021/08/04 05:13:03;;;;;;;7.22;5.85;;;16.60;99.90;;;;;;4994152;28;20110;-74
2021/08/04 05:15:29;;;;;;;11.05;6.35;;;16.70;99.90;;;;;;5013164;28;20030;-74
2021/08/04 05:17:54;;;;;;;7.80;6.35;;;16.80;99.90;;;;;;5012620;28;20042;-73
2021/08/04 05:20:21;;;;;;;11.57;6.88;;;16.90;99.90;;;;;;5012060;28;20033;-74
2021/08/04 05:22:47;;;;;;;7.38;6.45;;;16.90;99.90;;;;;;5012221;28;20104;-73
2021/08/04 05:25:13;;;;;;;7.78;7.07;;;16.90;99.90;;;;;;4991704;28;20121;-73
2021/08/04 05:27:38;;;;;;;9.23;6.70;;;16.90;99.90;;;;;;4994293;28;20021;-73
2021/08/04 05:30:04;;;;;;;7.80;7.00;;;16.90;99.90;;;;;;5010722;28;20481;-72
2021/08/04 05:32:29;;;;;;;8.35;6.65;;;17.00;99.90;;;;;;5014198;28;20382;-73
2021/08/04 05:34:55;;;;;;;7.97;6.35;;;17.00;99.90;;;;;;5011073;28;20083;-74
2021/08/04 05:37:30;;;;;;;10.15;6.95;;;17.20;99.90;;;;;;5012146;28;20034;-73
2021/08/04 05:39:56;;;;;;;9.48;6.60;;;17.30;99.90;;;;;;5009703;28;20498;-73
2021/08/04 05:42:33;;;;;;;9.25;6.20;;;17.30;99.90;;;;;;5012634;28;20041;-73
2021/08/04 05:44:59;;;;;;;8.27;6.85;;;17.30;99.90;;;;;;5011857;28;20033;-73
2021/08/04 05:47:24;;;;;;;7.25;6.38;;;17.50;99.90;;;;;;5010074;28;20037;-73
2021/08/04 05:49:50;;;;;;;6.97;6.28;;;;;;;;;;5012773;28;20025;-73
2021/08/04 05:52:18;;;;;;;6.97;6.18;;;17.60;99.90;;;;;;5001523;28;20037;-73
2021/08/04 05:54:44;;;;;;;8.85;6.47;;;17.40;99.90;;;;;;5016756;28;20037;-73
2021/08/04 05:57:09;;;;;;;8.18;6.70;;;17.50;99.90;;;;;;5018519;28;20022;-73
2021/08/04 05:59:35;;;;;;;6.95;6.30;;;17.70;99.90;;;;;;4996186;28;20014;-74
2021/08/04 06:02:00;;;;;;;7.82;7.13;;;17.60;99.90;;;;;;5004880;28;20355;-74
2021/08/04 06:04:26;;;;;;;7.00;6.30;;;17.90;99.90;;;;;;5015480;28;20072;-73
2021/08/04 06:06:51;;;;;;;7.35;6.63;;;17.80;99.90;;;;;;5019611;28;20022;-73
2021/08/04 06:09:17;;;;;;;6.97;6.28;;;17.80;99.90;;;;;;5019218;28;20026;-74
2021/08/04 06:11:42;;;;;;;8.52;6.72;;;17.80;99.90;;;;;;5018761;28;20017;-73
2021/08/04 06:14:08;;;;;;;8.65;6.22;;;17.70;99.90;;;;;;5001770;28;20022;-74
2021/08/04 06:16:33;;;;;;;8.20;6.07;;;17.80;99.90;;;;;;5018140;28;20029;-73
2021/08/04 06:18:59;;;;;;;7.28;6.53;;;17.70;99.90;;;;;;5018974;28;20030;-73
2021/08/04 06:21:26;;;;;;;7.13;6.20;;;17.90;99.90;;;;;;5017153;28;20068;-73
2021/08/04 06:23:53;;;;;;;7.28;6.07;;;18.00;99.90;;;;;;5012518;28;20656;-73
2021/08/04 06:26:37;;;;;;;6.35;5.75;;;18.00;99.90;;;;;;5016769;28;20029;-74
2021/08/04 06:29:02;;;;;;;6.43;5.82;;;18.00;99.90;;;;;;5019556;28;20069;-74
2021/08/04 06:31:30;;;;;;;5.55;5.05;;;18.30;99.90;;;;;;5023520;28;20060;-73
2021/08/04 06:33:56;;;;;;;6.75;5.47;;;18.20;99.90;;;;;;5015992;28;20552;-73
2021/08/04 06:36:22;;;;;;;6.15;5.35;;;18.30;99.90;;;;;;5017730;28;20030;-76
2021/08/04 06:38:47;;;;;;;5.30;4.80;;;18.30;99.90;;;;;;5023560;28;20389;-74
2021/08/04 06:41:13;;;;;;;6.70;4.88;;;18.30;99.90;;;;;;5020069;28;20037;-75
2021/08/04 06:43:38;;;;;;;5.97;5.47;;;18.40;99.90;;;;;;5016862;28;20025;-74
2021/08/04 06:46:09;;;;;;;7.93;6.10;;;18.50;99.90;;;;;;5022360;28;20112;-74
2021/08/04 06:48:34;;;;;;;7.43;6.33;;;18.60;99.90;;;;;;5028025;28;20390;-76
2021/08/04 06:51:00;;;;;;;7.13;5.40;;;18.70;99.90;;;;;;5020930;28;20034;-74
2021/08/04 06:53:25;;;;;;;6.03;5.20;;;18.70;99.90;;;;;;5020901;28;20030;-74
2021/08/04 06:55:51;;;;;;;10.55;5.60;;;18.80;99.90;;;;;;5030022;28;20030;-74
2021/08/04 06:58:17;;;;;;;7.28;5.55;;;;;;;;;;5027031;28;20392;-74
2021/08/04 07:00:42;;;;;;;8.90;5.50;;;18.70;99.90;;;;;;5022207;28;20073;-74
2021/08/04 07:03:08;;;;;;;6.05;5.18;;;18.60;99.90;;;;;;5013756;28;20064;-72
2021/08/04 07:05:34;;;;;;;10.98;5.43;;;18.80;99.90;;;;;;5019220;28;20558;-73
2021/08/04 07:07:59;;;;;;;5.43;4.93;;;18.90;99.90;;;;;;5015038;28;20141;-73
2021/08/04 07:10:25;;;;;;;5.15;4.20;;;19.00;99.90;;;;;;5016501;28;20021;-72
2021/08/04 07:12:50;;;;;;;7.88;4.28;;;19.20;99.90;;;;;;5023951;28;20030;-73
2021/08/04 07:15:16;;;;;;;4.57;4.03;;;19.20;99.90;;;;;;5026858;28;20029;-73
2021/08/04 07:17:46;;;;;;;6.32;4.55;;;19.30;99.90;;;;;;5019175;28;20041;-73
2021/08/04 07:20:16;;;;;;;5.57;4.17;;;19.30;99.90;;;;;;5020782;28;20631;-73
2021/08/04 07:22:42;;;;;;;6.20;3.93;;;19.50;99.90;;;;;;5019184;28;20083;-73
2021/08/04 07:25:09;;;;;;;5.72;3.90;;;19.60;99.90;;;;;;5022728;28;20025;-73
2021/08/04 07:27:35;;;;;;;6.15;4.03;;;19.50;99.90;;;;;;5018294;28;20160;-73
2021/08/04 07:30:01;;;;;;;4.05;3.53;;;19.40;99.90;;;;;;5022192;28;20109;-73
2021/08/04 07:32:26;;;;;;;4.88;3.70;;;19.10;99.90;;;;;;5017017;28;20046;-73
2021/08/04 07:34:52;;;;;;;6.63;3.88;;;19.40;99.90;;;;;;5019687;28;20493;-74
2021/08/04 07:37:18;;;;;;;6.68;3.38;;;19.50;99.90;;;;;;5019081;28;20037;-74
2021/08/04 07:39:43;;;;;;;5.20;3.60;;;19.60;99.90;;;;;;5017407;28;20525;-73
2021/08/04 07:42:09;;;;;;;9.80;4.07;;;19.80;99.90;;;;;;5021471;28;20018;-73
2021/08/04 07:44:35;;;;;;;4.57;3.40;;;19.80;99.90;;;;;;5024157;28;20117;-73
2021/08/04 07:47:01;;;;;;;4.03;3.63;;;19.90;99.90;;;;;;5019512;28;20081;-73
2021/08/04 07:49:26;;;;;;;5.45;3.53;;;20.00;99.90;;;;;;5019195;28;20239;-73
2021/08/04 07:51:52;;;;;;;4.10;3.40;;;20.00;99.90;;;;;;5020180;28;20394;-73
2021/08/04 07:54:18;;;;;;;8.32;3.22;;;20.00;99.90;;;;;;5016853;28;20117;-73
2021/08/04 07:56:47;;;;;;;5.88;3.47;;;19.90;99.90;;;;;;4997914;28;20053;-73
2021/08/04 07:59:15;;;;;;;5.00;3.28;;;20.00;99.90;;;;;;5018719;28;20104;-74
2021/08/04 08:01:40;;;;;;;4.03;3.28;;;20.20;99.90;;;;;;5020719;28;20386;-72
2021/08/04 08:04:06;;;;;;;7.15;3.78;;;20.10;99.90;;;;;;5020011;28;20080;-74
2021/08/04 08:06:31;;;;;;;5.15;3.50;;;20.30;99.90;;;;;;5014042;28;20090;-73
2021/08/04 08:08:57;;;;;;;4.15;3.65;;;20.40;99.90;;;;;;5021300;28;20053;-74
2021/08/04 08:11:22;;;;;;;4.60;3.67;;;20.40;99.90;;;;;;5025407;28;20037;-74
2021/08/04 08:13:56;;;;;;;5.35;3.38;;;;;;;;;;5023836;28;20101;-74
2021/08/04 08:16:21;;;;;;;4.35;3.30;;;20.40;99.90;;;;;;5026190;28;20030;-76
2021/08/04 08:18:50;;;;;;;4.10;3.70;;;20.60;99.90;;;;;;5022430;28;20064;-73
2021/08/04 08:21:16;;;;;;;4.05;3.55;;;20.50;99.90;;;;;;5025472;28;20026;-74
2021/08/04 08:23:41;;;;;;;6.13;4.18;;;20.50;99.90;;;;;;5025213;28;20478;-74
2021/08/04 08:26:07;;;;;;;7.07;4.03;;;20.60;99.90;;;;;;5023387;28;20030;-77
2021/08/04 08:28:32;;;;;;;6.40;4.43;;;20.40;99.90;;;;;;5024104;28;20144;-74
2021/08/04 08:30:58;;;;;;;6.22;4.50;;;20.40;99.90;;;;;;5022922;28;20465;-74
2021/08/04 08:33:23;;;;;;;4.20;3.78;;;20.40;99.90;;;;;;5028869;28;20040;-73
2021/08/04 08:35:50;;;;;;;4.43;4.00;;;20.50;99.90;;;;;;5026059;28;20045;-73
2021/08/04 08:38:15;;;;;;;5.47;4.40;;;20.40;99.90;;;;;;5027664;28;20032;-72
2021/08/04 08:40:43;;;;;;;4.38;3.65;;;20.50;99.90;;;;;;5022269;28;20094;-72
2021/08/04 08:43:09;;;;;;;6.95;3.90;;;20.90;99.90;;;;;;5027071;28;20033;-73
2021/08/04 08:45:34;;;;;;;4.75;3.80;;;21.00;99.90;;;;;;5025058;28;20025;-74
2021/08/04 08:48:00;;;;;;;5.10;4.22;;;21.20;99.90;;;;;;5028760;28;20029;-75
2021/08/04 08:50:26;;;;;;;5.15;3.28;;;21.20;99.90;;;;;;5028775;28;20392;-76
2021/08/04 08:52:56;;;;;;;3.50;3.20;;;21.70;99.90;;;;;;5024169;28;20038;-74
2021/08/04 08:55:22;;;;;;;5.38;3.63;;;22.80;99.90;;;;;;5024346;28;20032;-73
2021/08/04 08:57:47;;;;;;;3.95;2.67;;;23.70;98.40;;;;;;5020407;28;20026;-73
2021/08/04 09:00:13;;;;;;;5.13;3.88;;;25.20;95.50;;;;;;5019352;28;20186;-74
2021/08/04 09:02:42;;;;;;;4.68;2.95;;;25.90;93.70;;;;;;5016663;28;20473;-74
2021/08/04 09:05:10;;;;;;;3.08;2.78;;;26.40;91.50;;;;;;5018633;28;20048;-75
2021/08/04 09:07:40;;;;;;;5.00;2.88;;;25.30;91.70;;;;;;5016798;28;20034;-75
2021/08/04 09:10:25;;;;;;;2.97;2.67;;;25.80;91.20;;;;;;5019390;28;20080;-75
2021/08/04 09:12:57;;;;;;;4.03;2.92;;;25.40;91.00;;;;;;5018939;28;20033;-74
2021/08/04 09:15:23;;;;;;;4.25;3.17;;;26.50;89.40;;;;;;5016743;28;20041;-74
2021/08/04 09:18:09;;;;;;;3.55;3.10;;;25.60;90.10;;;;;;5018046;28;20121;-74
2021/08/04 09:20:57;;;;;;;3.50;3.20;;;25.20;90.90;;;;;;5013616;28;20037;-75
2021/08/04 09:23:25;;;;;;;6.30;2.70;;;25.00;91.00;;;;;;5016567;28;20104;-74
2021/08/04 09:26:10;;;;;;;3.83;3.40;;;24.20;92.10;;;;;;5018504;28;20030;-74
2021/08/04 09:29:03;;;;;;;6.13;3.75;;;23.90;92.50;;;;;;5023376;28;20021;-73
2021/08/04 09:31:43;;;;;;;8.40;3.63;;;23.00;93.70;;;;;;5026377;28;20672;-75
2021/08/04 09:34:38;;;;;;;8.77;3.90;;;23.00;94.30;;;;;;5024670;28;20045;-73
2021/08/04 09:37:16;;;;;;;6.75;3.72;;;23.20;94.20;;;;;;5026574;28;20157;-75
2021/08/04 09:39:45;;;;;;;7.13;3.50;;;23.30;94.30;;;;;;5022933;28;20022;-74
2021/08/04 09:42:14;;;;;;;4.07;2.72;;;23.70;93.00;;;;;;5021958;28;20022;-75
2021/08/04 09:44:54;;;;;;;4.30;3.72;;;24.10;92.10;;;;;;5024068;28;20393;-75
2021/08/04 09:47:19;;;;;;;5.38;3.45;;;24.20;92.30;;;;;;5019742;28;20076;-73
2021/08/04 09:50:03;;;;;;;3.40;3.03;;;24.00;92.70;;;;;;5023646;28;20066;-73
2021/08/04 09:52:32;;;;;;;5.70;3.90;;;24.90;91.80;;;;;;5014983;28;20228;-74
2021/08/04 09:55:14;;;;;;;3.47;2.92;;;25.60;90.90;;;;;;5022547;28;20029;-73
2021/08/04 09:57:42;;;;;;;3.80;3.42;;;25.40;90.20;;;;;;5017040;28;20045;-73
2021/08/04 10:00:10;;;;;;;4.38;3.30;;;24.60;91.00;;;;;;5021367;28;20036;-75
2021/08/04 10:02:36;;;;;;;3.78;3.30;;;24.20;91.70;;;;;;5019154;28;20022;-75
2021/08/04 10:05:15;;;;;;;6.25;4.15;;;25.60;88.90;;;;;;5022013;28;20025;-75
2021/08/04 10:08:01;;;;;;;5.78;3.55;;;26.80;86.00;;;;;;5017854;28;20482;-73
2021/08/04 10:10:28;;;;;;;5.25;2.95;;;26.90;84.20;;;;;;5009293;28;20025;-75
2021/08/04 10:12:55;;;;;;;5.10;3.13;;;27.50;83.10;;;;;;5015316;28;20037;-74
2021/08/04 10:15:20;;;;;;;3.10;2.50;;;26.20;83.40;;;;;;5016375;28;20025;-75
2021/08/04 10:17:47;;;;;;;5.22;2.60;;;26.30;81.70;;;;;;5021458;28;20045;-75
2021/08/04 10:20:13;;;;;;;3.05;2.70;;;26.10;80.70;;;;;;5014610;28;20036;-76
2021/08/04 10:22:40;;;;;;;2.92;2.63;;;25.70;82.80;;;;;;5015562;28;20033;-74
2021/08/04 10:25:06;;;;;;;3.15;2.85;;;26.70;81.50;;;;;;5022556;28;20112;-74
2021/08/04 10:27:31;;;;;;;3.33;3.03;;;28.60;77.90;;;;;;5017983;28;20030;-74
2021/08/04 10:29:57;;;;;;;3.28;2.72;;;28.80;74.70;;;;;;5017381;28;20036;-74
2021/08/04 10:32:23;;;;;;;3.40;2.80;;;28.70;73.80;;;;;;5020776;28;21360;-74
2021/08/04 10:34:49;;;;;;;4.38;2.55;;;27.50;75.20;;;;;;5018290;28;20037;-75
2021/08/04 10:37:16;;;;;;;4.35;2.80;;;28.00;74.00;;;;;;5018292;28;20030;-74
2021/08/04 10:39:41;;;;;;;2.70;2.47;;;28.40;72.60;;;;;;5019529;28;20568;-73
2021/08/04 10:42:08;;;;;;;5.65;2.50;;;28.30;71.30;;;;;;5015703;28;20025;-74
2021/08/04 10:44:35;;;;;;;4.72;3.35;;;28.50;71.80;;;;;;5019942;28;20051;-74
2021/08/04 10:47:05;;;;;;;3.50;2.70;;;29.60;70.10;;;;;;5014583;28;20424;-73
2021/08/04 10:49:35;;;;;;;3.45;3.00;;;29.70;69.70;;;;;;5014001;28;20025;-75
2021/08/04 10:52:05;;;;;;;2.65;2.33;;;28.90;69.00;;;;;;5016535;28;20405;-75
2021/08/04 10:54:32;;;;;;;4.05;2.45;;;28.10;68.70;;;;;;5013424;28;20474;-74
2021/08/04 10:56:57;;;;;;;3.70;2.50;;;26.90;70.10;;;;;;5019937;28;20037;-76
2021/08/04 10:59:30;;;;;;;2.95;2.45;;;25.90;72.20;;;;;;5017062;28;20042;-72
2021/08/04 11:02:02;;;;;;;2.53;1.98;;;25.60;73.50;;;;;;5018191;28;20025;-72
2021/08/04 11:04:27;;;;;;;8.52;2.92;;;25.60;73.30;;;;;;5017556;28;20508;-73
2021/08/04 11:07:12;;;;;;;3.90;2.37;;;26.20;72.90;;;;;;5015351;28;20047;-75
2021/08/04 11:09:47;;;;;;;2.88;2.10;;;28.10;68.00;;;;;;5015537;28;20283;-73
2021/08/04 11:12:19;;;;;;;3.03;2.53;;;28.20;68.70;;;;;;5017691;28;20091;-73
2021/08/04 11:14:49;;;;;;;4.65;2.33;;;27.00;69.60;;;;;;5014001;28;20030;-73
2021/08/04 11:17:21;;;;;;;3.03;2.78;;;26.20;70.40;;;;;;5019674;28;20549;-75
2021/08/04 11:20:09;;;;;;;4.90;2.83;;;25.90;72.20;;;;;;5019007;28;20041;-74
2021/08/04 11:22:34;;;;;;;3.33;3.03;;;26.50;72.30;;;;;;5017942;28;20493;-73
2021/08/04 11:25:05;;;;;;;6.45;2.90;;;27.10;72.00;;;;;;5019457;28;20033;-72
2021/08/04 11:27:53;;;;;;;4.45;2.97;;;26.50;72.00;;;;;;5010460;28;20363;-73
2021/08/04 11:30:38;;;;;;;4.70;2.50;;;26.00;72.30;;;;;;5018071;28;20508;-73
2021/08/04 11:33:19;;;;;;;3.03;2.35;;;26.10;73.90;;;;;;5011541;28;20029;-73
2021/08/04 11:35:45;;;;;;;3.63;2.83;;;27.00;71.60;;;;;;5015180;28;20116;-73
2021/08/04 11:38:11;;;;;;;3.75;2.40;;;27.20;70.00;;;;;;5016085;28;20026;-73
2021/08/04 11:40:36;;;;;;;3.42;2.53;;;26.40;70.50;;;;;;5020708;28;20025;-73
2021/08/04 11:43:02;;;;;;;3.20;2.30;;;26.10;71.40;;;;;;5015250;28;20033;-73
2021/08/04 11:45:28;;;;;;;4.00;3.28;;;26.40;71.70;;;;;;5019520;28;20101;-73
2021/08/04 11:47:54;;;;;;;2.97;2.40;;;27.40;69.50;;;;;;5017619;28;20355;-74
2021/08/04 11:50:20;;;;;;;2.83;2.13;;;27.50;69.30;;;;;;5018482;28;20026;-73
2021/08/04 11:52:45;;;;;;;2.72;2.53;;;27.40;69.00;;;;;;5018264;28;20029;-73
2021/08/04 11:55:15;;;;;;;3.50;3.15;;;26.60;70.40;;;;;;5016862;28;20037;-73
2021/08/04 11:57:43;;;;;;;4.85;2.83;;;27.00;69.60;;;;;;5019493;28;20393;-73
2021/08/04 12:00:18;;;;;;;4.90;3.67;;;26.50;70.50;;;;;;5016942;28;20561;-74
2021/08/04 12:02:44;;;;;;;3.53;2.53;;;26.80;70.90;;;;;;5018610;28;20056;-73
2021/08/04 12:05:11;;;;;;;4.05;2.17;;;26.90;68.70;;;;;;5016413;28;20383;-74
2021/08/04 12:07:38;;;;;;;3.38;2.67;;;26.30;69.30;;;;;;5019368;28;20117;-72
2021/08/04 12:10:07;;;;;;;4.10;3.38;;;26.30;70.20;;;;;;5016650;28;20424;-74
2021/08/04 12:12:59;;;;;;;3.47;3.03;;;27.20;70.00;;;;;;4983811;28;20069;-71
2021/08/04 12:15:28;;;;;;;3.38;2.85;;;27.50;68.40;;;;;;4997167;28;20044;-73
2021/08/04 12:18:02;;;;;;;2.80;2.60;;;28.70;67.40;;;;;;5020448;28;20124;-73
2021/08/04 12:20:29;;;;;;;2.85;2.55;;;28.60;65.50;;;;;;5015690;28;20113;-74
2021/08/04 12:23:00;;;;;;;2.92;2.63;;;27.90;66.20;;;;;;5018745;28;20026;-74
2021/08/04 12:25:27;;;;;;;5.38;3.47;;;28.40;66.10;;;;;;5015051;28;20037;-74
2021/08/04 12:27:54;;;;;;;6.93;4.10;;;28.90;65.80;;;;;;5017984;28;20033;-74
2021/08/04 12:30:27;;;;;;;2.40;2.20;;;29.60;65.40;;;;;;5017775;28;20040;-75
2021/08/04 12:33:05;;;;;;;3.30;2.42;;;30.40;62.50;;;;;;5018404;28;20112;-74
2021/08/04 12:36:02;;;;;;;4.00;2.88;;;29.20;63.90;;;;;;5015985;28;20363;-75
2021/08/04 12:38:29;;;;;;;6.43;2.80;;;26.50;67.50;;;;;;4996309;28;20025;-74
2021/08/04 12:40:56;;;;;;;4.35;2.88;;;26.40;68.40;;;;;;5016549;28;20029;-73
2021/08/04 12:43:24;;;;;;;6.68;3.30;;;25.30;70.10;;;;;;5018006;28;20081;-73
2021/08/04 12:45:55;;;;;;;3.30;2.95;;;24.60;72.10;;;;;;5017843;28;20029;-73
2021/08/04 12:48:33;;;;;;;3.53;3.15;;;24.10;73.30;;;;;;5018045;28;20029;-73
2021/08/04 12:50:59;;;;;;;3.25;2.95;;;23.90;74.60;;;;;;5008336;28;20089;-73
2021/08/04 12:53:33;;;;;;;3.38;2.45;;;24.00;74.70;;;;;;5020707;28;20026;-72
2021/08/04 12:56:03;;;;;;;5.68;3.67;;;23.90;75.70;;;;;;5016743;28;20062;-74